Time;durP1;ratioP1;P1;durP2;ratioP2;P2;SDS_P1;SDS_P2;PMS_P1;PMS_P2;Temp;Humidity;BMP_temperature;BMP_pressure;BME280_temperature;BME280_humidity;BME280_pressure;Samples;Min_cycle;Max_cycle;Signal;HPM_P1;HPM_P2
2022/01/03 00:02:58;;;;;;;6.89;0.86;;;;;;;11.49;75.77;99410.69;2001883;81;21073;-73
2022/01/03 00:06:01;;;;;;;7.76;1.31;;;;;;;11.46;75.60;99400.28;2003437;81;20605;-73
2022/01/03 00:09:04;;;;;;;8.57;0.98;;;;;;;11.44;75.71;99412.44;2004023;81;20202;-73
2022/01/03 00:12:08;;;;;;;4.39;0.94;;;;;;;11.43;75.62;99414.19;2003265;80;20733;-72
2022/01/03 00:15:15;;;;;;;7.85;0.98;;;;;;;11.43;75.33;99413.31;2002368;80;20978;-73
2022/01/03 00:18:19;;;;;;;7.26;0.94;;;;;;;11.41;74.93;99409.88;2008672;80;20913;-73
2022/01/03 00:21:29;;;;;;;9.10;1.10;;;;;;;11.43;75.04;99416.78;2008596;80;20205;-72
2022/01/03 00:24:33;;;;;;;8.54;1.24;;;;;;;11.40;75.00;99411.59;2008842;80;20266;-73
2022/01/03 00:27:42;;;;;;;7.39;1.02;;;;;;;11.38;75.14;99405.56;2008115;80;20533;-73
2022/01/03 00:30:53;;;;;;;9.49;1.30;;;;;;;11.36;75.28;99422.03;2006569;78;24459;-72
2022/01/03 00:33:57;;;;;;;6.70;1.00;;;;;;;11.36;74.97;99411.66;2067960;70;20228;-73
2022/01/03 00:37:01;;;;;;;9.51;1.46;;;;;;;11.34;74.94;99403.88;2004549;81;20209;-73
2022/01/03 00:40:04;;;;;;;6.70;0.93;;;;;;;11.31;74.99;99405.59;2004174;81;21153;-73
2022/01/03 00:43:07;;;;;;;8.96;2.11;;;;;;;11.27;75.34;99412.56;2004380;81;20319;-73
2022/01/03 00:46:09;;;;;;;7.94;0.90;;;;;;;11.24;75.18;99412.59;2001897;78;38331;-73
2022/01/03 00:49:12;;;;;;;9.85;1.71;;;;;;;11.21;75.62;99420.41;2004016;81;20199;-73
2022/01/03 00:52:14;;;;;;;7.20;1.60;;;;;;;11.18;75.46;99420.44;1999751;81;20309;-73
2022/01/03 00:55:18;;;;;;;6.21;0.80;;;;;;;11.16;75.64;99417.00;2003159;81;20178;-73
2022/01/03 00:58:23;;;;;;;6.72;0.90;;;;;;;11.13;75.73;99432.56;2003195;81;20252;-73
2022/01/03 01:01:27;;;;;;;9.14;1.24;;;;;;;11.09;75.90;99436.94;2002202;78;20658;-73
2022/01/03 01:04:30;;;;;;;9.07;1.11;;;;;;;11.07;75.94;99438.69;1999509;81;20189;-72
2022/01/03 01:07:34;;;;;;;6.86;1.21;;;;;;;11.05;75.82;99453.41;2003533;81;20354;-72
2022/01/03 01:10:40;;;;;;;11.00;1.23;;;;;;;11.06;76.08;99462.94;2003132;81;20189;-72
2022/01/03 01:13:44;;;;;;;7.51;0.91;;;;;;;10.99;76.27;99456.06;2002784;81;20938;-73
2022/01/03 01:16:48;;;;;;;6.93;1.48;;;;;;;10.97;76.50;99452.59;2001939;80;23605;-72
2022/01/03 01:19:51;;;;;;;8.13;1.09;;;;;;;10.94;76.81;99449.13;2003798;81;20206;-73
2022/01/03 01:22:53;;;;;;;9.64;1.35;;;;;;;10.90;77.02;99464.75;2003471;81;20174;-73
2022/01/03 01:29:19;;;;;;;7.53;0.90;;;;;;;10.87;76.92;99467.34;2003783;81;20318;-72
2022/01/03 01:32:23;;;;;;;7.32;1.02;;;;;;;10.83;77.27;99462.19;2002019;78;21458;-73
2022/01/03 01:35:36;;;;;;;8.96;1.19;;;;;;;10.80;77.37;99472.59;2003349;81;20591;-73
2022/01/03 01:38:40;;;;;;;7.26;1.40;;;;;;;10.80;76.99;99481.25;2003328;80;20202;-73
2022/01/03 01:41:45;;;;;;;7.28;0.88;;;;;;;10.82;76.73;99478.66;2003294;81;20186;-72
2022/01/03 01:44:50;;;;;;;8.85;0.94;;;;;;;10.82;76.93;99492.50;2000864;81;20186;-73
2022/01/03 01:47:57;;;;;;;8.41;1.21;;;;;;;10.80;77.12;99486.44;2000300;78;22328;-72
2022/01/03 01:51:00;;;;;;;8.81;1.34;;;;;;;10.83;76.96;99493.34;2002056;81;21042;-72
2022/01/03 01:54:05;;;;;;;11.93;1.31;;;;;;;10.86;76.69;99507.19;2001653;81;20193;-72
2022/01/03 01:57:19;;;;;;;7.13;1.16;;;;;;;10.87;76.42;99482.94;1998140;81;20574;-72
2022/01/03 02:00:22;;;;;;;9.19;1.33;;;;;;;10.87;76.45;99482.94;1999980;78;20791;-73
2022/01/03 02:03:36;;;;;;;5.45;0.77;;;;;;;10.84;76.69;99495.94;2001991;81;20266;-73
2022/01/03 02:06:49;;;;;;;6.44;1.05;;;;;;;10.86;76.67;99483.81;2001318;81;20194;-72
2022/01/03 02:10:06;;;;;;;10.35;1.45;;;;;;;10.84;76.48;99476.91;2005059;80;20193;-72
2022/01/03 02:13:10;;;;;;;6.79;0.90;;;;;;;10.85;76.59;99478.63;2001524;81;21030;-72
2022/01/03 02:16:13;;;;;;;6.97;1.15;;;;;;;10.83;76.92;99496.81;1996164;81;20197;-72
2022/01/03 02:19:16;;;;;;;8.45;1.19;;;;;;;10.83;77.05;99504.63;2001357;78;26106;-72
2022/01/03 02:22:19;;;;;;;5.75;0.88;;;;;;;10.76;79.06;99486.44;2000781;81;20186;-71
2022/01/03 02:25:23;;;;;;;5.76;1.00;;;;;;;10.58;78.93;99496.03;2001673;81;20756;-71
2022/01/03 02:28:27;;;;;;;6.05;0.75;;;;;;;10.46;80.25;99487.41;2000838;81;20301;-72
2022/01/03 02:31:29;;;;;;;7.34;0.95;;;;;;;10.33;81.95;99494.34;2002672;78;22824;-72
2022/01/03 02:34:32;;;;;;;9.55;1.36;;;;;;;10.24;83.15;99495.25;2005632;80;20193;-73
2022/01/03 02:37:37;;;;;;;6.28;1.19;;;;;;;10.19;83.65;99491.75;2006754;80;20803;-72
2022/01/03 02:40:44;;;;;;;;;;;;;;;10.09;84.24;99492.63;2006636;80;20180;-72
2022/01/03 02:43:49;;;;;;;7.14;1.88;;;;;;;10.05;84.49;99482.25;2006398;80;20150;-72
2022/01/03 02:46:52;;;;;;;8.79;1.17;;;;;;;9.99;84.57;99477.94;2001811;78;37483;-72
2022/01/03 02:49:54;;;;;;;4.89;0.81;;;;;;;9.98;84.14;99477.06;2002878;81;20383;-73
2022/01/03 02:52:57;;;;;;;10.35;1.67;;;;;;;10.00;83.72;99474.47;2002723;81;20197;-74
2022/01/03 02:56:00;;;;;;;6.91;1.30;;;;;;;9.97;83.33;99475.34;2003436;81;20727;-73
2022/01/03 02:59:20;;;;;;;8.09;0.90;;;;;;;9.98;83.19;99471.03;2002594;81;20355;-73
2022/01/03 03:02:24;;;;;;;6.84;0.94;;;;;;;9.98;82.93;99474.47;2001999;78;20519;-73
2022/01/03 03:05:27;;;;;;;9.20;1.42;;;;;;;9.98;82.51;99471.88;2003652;81;20194;-73
2022/01/03 03:08:30;;;;;;;8.52;1.19;;;;;;;10.00;82.27;99466.69;2001312;81;20716;-75
2022/01/03 03:11:35;;;;;;;8.52;1.92;;;;;;;9.99;82.17;99471.00;2004633;81;20222;-73
2022/01/03 03:14:38;;;;;;;8.68;0.94;;;;;;;9.96;82.03;99473.63;2004374;81;20264;-73
2022/01/03 03:17:43;;;;;;;9.95;1.17;;;;;;;9.93;82.18;99476.22;2002522;78;31930;-74
2022/01/03 03:20:46;;;;;;;12.76;1.64;;;;;;;9.94;81.78;99471.91;2003914;81;20182;-73
2022/01/03 03:23:48;;;;;;;8.81;1.61;;;;;;;9.96;81.56;99478.81;2003499;80;20287;-73
2022/01/03 03:26:51;;;;;;;9.90;1.20;;;;;;;9.94;81.26;99475.34;2004339;81;20247;-73
2022/01/03 03:29:54;;;;;;;6.59;1.10;;;;;;;9.96;81.12;99478.81;2005130;81;20734;-74
2022/01/03 03:33:01;;;;;;;8.48;1.23;;;;;;;9.93;81.07;99478.81;2008292;78;22520;-73
2022/01/03 03:36:04;;;;;;;11.69;1.49;;;;;;;9.92;81.11;99474.50;2009160;80;20201;-73
2022/01/03 03:39:07;;;;;;;13.82;1.45;;;;;;;9.93;80.75;99472.75;2009883;80;20262;-73
2022/01/03 03:42:11;;;;;;;10.89;1.20;;;;;;;9.93;80.66;99467.56;2010065;80;20238;-73
2022/01/03 03:45:14;;;;;;;6.71;1.20;;;;;;;9.89;80.70;99464.13;2008407;80;20251;-73
2022/01/03 03:48:18;;;;;;;11.68;1.40;;;;;;;9.88;80.81;99474.50;2009199;78;22326;-73
2022/01/03 03:51:20;;;;;;;6.28;1.36;;;;;;;9.89;80.80;99471.91;2010270;80;20353;-74
2022/01/03 03:54:23;;;;;;;7.14;0.94;;;;;;;9.89;80.81;99476.22;2009914;80;20301;-73
2022/01/03 03:57:26;;;;;;;7.46;1.64;;;;;;;9.84;80.93;99471.03;2010448;80;20210;-73
2022/01/03 04:00:29;;;;;;;11.44;1.42;;;;;;;9.85;81.03;99475.34;2008673;78;21797;-73
2022/01/03 04:03:31;;;;;;;9.98;1.14;;;;;;;9.82;81.16;99474.47;2009227;80;20197;-73
2022/01/03 04:06:34;;;;;;;8.05;1.46;;;;;;;9.80;81.34;99474.47;2009060;80;20735;-73
2022/01/03 04:09:37;;;;;;;11.18;1.39;;;;;;;9.79;81.51;99480.53;2008520;80;20367;-73
2022/01/03 04:12:40;;;;;;;7.68;1.05;;;;;;;9.76;81.57;99483.13;2008859;80;20220;-73
2022/01/03 04:15:42;;;;;;;6.78;1.13;;;;;;;9.78;81.50;99478.81;2010322;78;25488;-73
2022/01/03 04:18:45;;;;;;;7.75;1.20;;;;;;;9.80;81.32;99473.63;2008589;80;20311;-73
2022/01/03 04:21:47;;;;;;;10.70;1.95;;;;;;;9.78;81.44;99484.00;2011923;80;20397;-74
2022/01/03 04:24:51;;;;;;;7.15;1.15;;;;;;;9.77;81.53;99481.41;2008487;80;21148;-73
2022/01/03 04:27:53;;;;;;;11.23;2.00;;;;;;;9.77;81.61;99481.41;2008793;80;20398;-73
2022/01/03 04:30:56;;;;;;;10.71;1.17;;;;;;;9.76;81.70;99475.34;2006947;78;22325;-74
2022/01/03 04:33:59;;;;;;;9.40;1.10;;;;;;;9.75;81.71;99477.94;2008824;80;20931;-74
2022/01/03 04:37:02;;;;;;;8.32;1.04;;;;;;;9.70;81.88;99467.59;2007948;80;20365;-73
2022/01/03 04:40:06;;;;;;;7.75;0.93;;;;;;;9.66;82.01;99474.47;2008373;80;20783;-73
2022/01/03 04:43:08;;;;;;;8.51;1.40;;;;;;;9.64;82.32;99473.59;2008190;80;20569;-73
2022/01/03 04:46:11;;;;;;;6.65;1.01;;;;;;;9.64;82.46;99475.34;2006086;78;25939;-73
2022/01/03 04:49:14;;;;;;;8.34;1.09;;;;;;;9.64;82.42;99462.38;2008504;80;20189;-73
2022/01/03 04:52:17;;;;;;;9.81;1.23;;;;;;;9.64;82.35;99471.03;2008380;80;20417;-73
2022/01/03 04:55:20;;;;;;;7.21;1.69;;;;;;;9.63;82.49;99458.06;2009271;80;20436;-73
2022/01/03 04:58:22;;;;;;;9.14;1.33;;;;;;;9.65;82.46;99466.69;2008207;80;20319;-73
2022/01/03 05:01:25;;;;;;;10.95;1.31;;;;;;;9.68;82.29;99464.09;2007031;78;26113;-73
2022/01/03 05:04:29;;;;;;;7.56;1.48;;;;;;;9.67;82.20;99459.78;2008732;80;20346;-73
2022/01/03 05:07:32;;;;;;;13.95;1.21;;;;;;;9.72;82.18;99458.06;2009222;80;20359;-73
2022/01/03 05:10:35;;;;;;;11.50;1.63;;;;;;;9.72;82.16;99468.44;2008448;80;21213;-73
2022/01/03 05:13:38;;;;;;;8.38;1.10;;;;;;;9.70;82.26;99475.38;2008909;80;20299;-73
2022/01/03 05:16:41;;;;;;;11.04;1.45;;;;;;;9.66;82.45;99477.06;2006658;78;23441;-73
2022/01/03 05:19:44;;;;;;;10.23;1.04;;;;;;;9.65;82.48;99466.69;2009293;80;20335;-73
2022/01/03 05:22:47;;;;;;;10.45;1.77;;;;;;;9.65;82.51;99474.47;2007886;80;20194;-73
2022/01/03 05:25:50;;;;;;;5.59;1.09;;;;;;;9.64;82.64;99470.16;2008444;80;20849;-73
2022/01/03 05:28:53;;;;;;;11.84;1.91;;;;;;;9.61;82.77;99476.22;2008447;80;20708;-73
2022/01/03 05:31:55;;;;;;;8.26;1.16;;;;;;;9.62;82.86;99469.28;2006623;78;27218;-73
2022/01/03 05:34:58;;;;;;;11.56;2.09;;;;;;;9.63;82.96;99471.03;2008251;80;20346;-73
2022/01/03 05:38:01;;;;;;;9.52;1.24;;;;;;;9.66;82.97;99476.19;2008196;80;21151;-73
2022/01/03 05:41:03;;;;;;;14.60;1.59;;;;;;;9.67;82.99;99478.78;2009519;80;20355;-73
2022/01/03 05:44:07;;;;;;;8.64;1.10;;;;;;;9.69;82.88;99466.72;2006898;80;20165;-73
2022/01/03 05:47:09;;;;;;;10.02;1.25;;;;;;;9.71;82.84;99456.34;2004848;78;23714;-73
2022/01/03 05:50:15;;;;;;;6.07;1.35;;;;;;;9.71;82.94;99458.09;2006192;80;20275;-73
2022/01/03 05:53:17;;;;;;;9.49;1.46;;;;;;;9.71;83.03;99452.88;2007614;80;20332;-73
2022/01/03 05:56:21;;;;;;;9.23;1.13;;;;;;;9.73;82.99;99453.75;2006597;80;20192;-72
2022/01/03 05:59:24;;;;;;;8.98;1.21;;;;;;;9.72;83.10;99452.03;2006828;80;20344;-73
2022/01/03 06:02:30;;;;;;;9.41;1.34;;;;;;;9.73;82.98;99451.16;2004341;77;21136;-73
2022/01/03 06:08:39;;;;;;;13.14;1.89;;;;;;;9.73;83.25;99443.38;2007276;80;20214;-73
2022/01/03 06:11:42;;;;;;;10.34;1.34;;;;;;;9.73;83.51;99443.38;2006469;80;20325;-73
2022/01/03 06:14:46;;;;;;;6.85;1.20;;;;;;;9.72;83.57;99437.34;2007738;80;20205;-73
2022/01/03 06:17:49;;;;;;;9.41;1.45;;;;;;;9.71;83.64;99435.59;2004334;78;20863;-73
2022/01/03 06:20:54;;;;;;;9.26;1.26;;;;;;;9.71;83.82;99438.19;2007564;80;20185;-73
2022/01/03 06:23:56;;;;;;;9.50;1.05;;;;;;;9.73;83.86;99433.00;2008526;80;20185;-73
2022/01/03 06:26:59;;;;;;;9.95;1.26;;;;;;;9.75;83.90;99431.28;2008071;80;20219;-73
2022/01/03 06:30:03;;;;;;;9.91;1.06;;;;;;;9.76;83.60;99425.22;2007369;80;20189;-73
2022/01/03 06:33:07;;;;;;;5.86;0.90;;;;;;;9.77;83.51;99438.19;2007792;77;21569;-73
2022/01/03 06:36:10;;;;;;;9.81;1.63;;;;;;;9.74;83.61;99430.41;2008166;80;20206;-73
2022/01/03 06:39:13;;;;;;;10.60;1.42;;;;;;;9.73;83.68;99433.00;2007999;80;20331;-74
2022/01/03 06:42:16;;;;;;;10.48;1.30;;;;;;;9.73;84.00;99433.88;2004435;80;20240;-73
2022/01/03 06:45:19;;;;;;;14.65;1.80;;;;;;;9.76;83.92;99427.81;2007149;78;22652;-74
2022/01/03 06:48:24;;;;;;;8.27;1.73;;;;;;;9.74;83.98;99425.22;2008592;80;20330;-73
2022/01/03 06:51:31;;;;;;;10.89;1.36;;;;;;;9.72;84.35;99426.97;2008429;80;20201;-73
2022/01/03 06:54:34;;;;;;;7.56;1.27;;;;;;;9.69;84.72;99419.16;2008735;80;20329;-72
2022/01/03 06:57:36;;;;;;;6.22;1.11;;;;;;;9.66;85.03;99422.63;2008158;80;20332;-72
2022/01/03 07:00:39;;;;;;;8.09;1.29;;;;;;;9.65;85.46;99423.50;2006791;78;20791;-73
2022/01/03 07:03:41;;;;;;;8.49;1.15;;;;;;;9.64;85.82;99420.91;2008653;80;20971;-72
2022/01/03 07:06:44;;;;;;;7.25;0.90;;;;;;;9.66;85.84;99424.34;2005034;80;20375;-73
2022/01/03 07:09:47;;;;;;;6.96;1.20;;;;;;;9.68;85.88;99417.44;2007114;80;20215;-73
2022/01/03 07:12:51;;;;;;;11.21;1.88;;;;;;;9.68;85.95;99422.63;2006028;80;20189;-72
2022/01/03 07:19:15;;;;;;;12.30;1.63;;;;;;;9.66;86.05;99421.75;2006529;80;20431;-74
2022/01/03 07:22:18;;;;;;;7.18;1.24;;;;;;;9.67;86.35;99413.97;2006379;80;20185;-73
2022/01/03 07:25:20;;;;;;;8.15;1.48;;;;;;;9.72;86.34;99426.09;2006224;80;20400;-74
2022/01/03 07:28:23;;;;;;;6.93;0.94;;;;;;;9.73;86.24;99427.81;2006735;80;20192;-73
2022/01/03 07:31:25;;;;;;;10.06;1.09;;;;;;;9.75;86.09;99424.38;2001209;79;23570;-73
2022/01/03 07:34:29;;;;;;;7.19;1.54;;;;;;;9.78;85.98;99423.50;2006220;80;20361;-73
2022/01/03 07:37:33;;;;;;;10.29;1.10;;;;;;;9.80;85.82;99432.13;2005058;80;20319;-73
2022/01/03 07:40:36;;;;;;;8.31;1.17;;;;;;;9.77;85.73;99422.63;2006140;80;20367;-72
2022/01/03 07:43:38;;;;;;;7.45;1.29;;;;;;;9.77;85.65;99433.00;2005768;80;20226;-74
2022/01/03 07:46:41;;;;;;;11.99;2.10;;;;;;;9.76;85.64;99435.59;2001329;78;22301;-73
2022/01/03 07:49:44;;;;;;;9.55;1.41;;;;;;;9.77;85.49;99421.75;2001779;81;20231;-73
2022/01/03 07:52:46;;;;;;;7.70;1.44;;;;;;;9.74;85.52;99421.78;2000954;81;20409;-72
2022/01/03 07:55:49;;;;;;;13.56;1.73;;;;;;;9.74;85.52;99425.22;2001294;81;20328;-72
2022/01/03 07:58:52;;;;;;;8.69;1.52;;;;;;;9.75;85.50;99423.50;2003316;81;20857;-73
2022/01/03 08:01:54;;;;;;;8.20;1.40;;;;;;;9.73;85.50;99428.69;2001491;78;23203;-74
2022/01/03 08:04:57;;;;;;;8.13;1.20;;;;;;;9.75;85.51;99426.97;2004359;81;20328;-74
2022/01/03 08:08:00;;;;;;;10.91;2.15;;;;;;;9.77;85.51;99424.34;2002892;80;20858;-74
2022/01/03 08:11:03;;;;;;;6.69;1.21;;;;;;;9.76;85.62;99426.09;2001597;80;20170;-74
2022/01/03 08:14:06;;;;;;;8.59;1.61;;;;;;;9.77;85.56;99429.53;2001849;81;21018;-73
2022/01/03 08:17:09;;;;;;;12.49;1.74;;;;;;;9.80;85.52;99429.53;2000168;78;22980;-73
2022/01/03 08:20:12;;;;;;;6.71;1.74;;;;;;;9.84;85.47;99431.25;2001795;81;21608;-74
2022/01/03 08:23:15;;;;;;;13.15;1.54;;;;;;;9.86;85.26;99430.38;2002124;81;20186;-74
2022/01/03 08:26:18;;;;;;;9.52;1.34;;;;;;;9.87;85.24;99439.03;2003601;81;20271;-74
2022/01/03 08:29:21;;;;;;;9.93;1.44;;;;;;;9.91;85.08;99435.59;2003929;81;20195;-74
2022/01/03 08:32:24;;;;;;;11.48;2.03;;;;;;;9.91;84.98;99431.25;2002183;78;21569;-74
2022/01/03 08:35:27;;;;;;;9.05;1.38;;;;;;;9.95;84.94;99434.72;2004236;81;20201;-74
2022/01/03 08:38:30;;;;;;;9.06;1.41;;;;;;;9.98;84.88;99425.19;2003698;81;20358;-74
2022/01/03 08:41:32;;;;;;;10.15;1.30;;;;;;;10.02;84.85;99420.84;2003406;81;20193;-74
2022/01/03 08:44:35;;;;;;;14.99;2.14;;;;;;;10.02;84.70;99423.44;2002987;81;20197;-74
2022/01/03 08:47:38;;;;;;;9.70;1.34;;;;;;;10.03;84.69;99432.09;2003217;78;22448;-74
2022/01/03 08:50:41;;;;;;;9.73;1.55;;;;;;;10.07;84.62;99423.47;2000105;81;20314;-74
2022/01/03 08:53:44;;;;;;;11.46;1.34;;;;;;;10.10;84.46;99418.28;2003487;81;20217;-74
2022/01/03 08:56:46;;;;;;;6.51;0.99;;;;;;;10.10;84.48;99419.13;2004249;81;20260;-74
2022/01/03 08:59:50;;;;;;;9.85;1.19;;;;;;;10.15;84.35;99419.97;2003958;81;20243;-74
2022/01/03 09:02:53;;;;;;;8.50;1.50;;;;;;;10.17;84.11;99426.03;2001851;78;23055;-75
2022/01/03 09:05:56;;;;;;;7.55;1.24;;;;;;;10.19;83.95;99429.47;2003553;81;20216;-74
2022/01/03 09:08:59;;;;;;;8.80;1.20;;;;;;;10.23;83.86;99426.06;2003787;81;20221;-74
2022/01/03 09:12:06;;;;;;;11.40;1.35;;;;;;;10.26;83.92;99423.44;2004549;81;20200;-74
2022/01/03 09:15:09;;;;;;;10.38;1.55;;;;;;;10.30;83.73;99411.31;2002669;80;20190;-74
2022/01/03 09:18:18;;;;;;;7.68;0.94;;;;;;;10.33;83.58;99413.91;2003532;78;23502;-74
2022/01/03 09:21:21;;;;;;;9.71;1.36;;;;;;;10.37;83.51;99414.75;2003363;81;20598;-74
2022/01/03 09:30:47;;;;;;;8.74;1.44;;;;;;;10.41;82.95;99411.28;2001472;78;25191;-74
2022/01/03 09:33:52;;;;;;;12.70;2.06;;;;;;;10.43;82.91;99413.03;2003451;81;20791;-74
2022/01/03 09:36:54;;;;;;;12.19;1.83;;;;;;;10.47;82.87;99408.69;2003310;81;20267;-74
2022/01/03 09:39:57;;;;;;;11.10;2.58;;;;;;;10.47;82.34;99417.31;2003389;81;20251;-73
2022/01/03 09:43:01;;;;;;;11.51;2.41;;;;;;;10.49;82.29;99413.00;2003610;81;20221;-73
2022/01/03 09:46:04;;;;;;;11.88;1.46;;;;;;;10.53;82.20;99422.47;2003846;78;22950;-74
2022/01/03 09:49:11;;;;;;;10.99;1.76;;;;;;;10.55;81.84;99425.06;2008621;80;20169;-74
2022/01/03 09:52:15;;;;;;;7.65;1.90;;;;;;;10.56;81.39;99425.06;2007435;80;20189;-73
2022/01/03 09:55:20;;;;;;;8.35;1.33;;;;;;;10.61;81.42;99421.59;2007712;80;20184;-73
2022/01/03 09:58:23;;;;;;;12.80;1.55;;;;;;;10.66;81.49;99427.63;2008643;80;20246;-74
2022/01/03 10:01:29;;;;;;;13.11;2.08;;;;;;;10.69;81.18;99425.88;2006737;78;20589;-74
2022/01/03 10:04:32;;;;;;;12.50;1.24;;;;;;;10.71;81.02;99415.50;2011136;80;20331;-75
2022/01/03 10:07:39;;;;;;;11.10;1.34;;;;;;;10.72;80.99;99414.63;2008080;80;20192;-74
2022/01/03 10:10:44;;;;;;;12.66;1.63;;;;;;;10.74;80.79;99421.53;2008377;80;20201;-74
2022/01/03 10:13:47;;;;;;;10.60;1.46;;;;;;;10.76;80.67;99421.50;2007911;80;20254;-74
2022/01/03 10:16:50;;;;;;;11.10;1.33;;;;;;;10.81;80.49;99414.59;2007372;78;22988;-74
2022/01/03 10:20:02;;;;;;;11.81;1.29;;;;;;;10.81;80.05;99415.44;2007948;80;20232;-74
2022/01/03 10:23:14;;;;;;;10.80;1.69;;;;;;;10.84;80.28;99424.97;2008299;80;20190;-73
2022/01/03 10:26:20;;;;;;;9.74;1.31;;;;;;;10.84;80.51;99422.34;2008312;80;20220;-74
2022/01/03 10:29:26;;;;;;;11.69;2.17;;;;;;;10.79;80.72;99411.13;2008073;80;20251;-74
2022/01/03 10:32:30;;;;;;;9.32;1.25;;;;;;;10.71;81.68;99415.50;2007845;78;22068;-74
2022/01/03 10:35:48;;;;;;;15.57;1.59;;;;;;;10.61;82.81;99406.88;2008212;80;20209;-74
2022/01/03 10:38:51;;;;;;;10.14;1.42;;;;;;;10.56;83.97;99406.03;2007337;80;20235;-74
2022/01/03 10:42:12;;;;;;;10.98;1.60;;;;;;;10.49;85.27;99396.53;2008481;80;20197;-74
2022/01/03 10:45:30;;;;;;;9.24;1.30;;;;;;;10.38;85.00;99398.31;2006708;80;20650;-74
2022/01/03 10:48:34;;;;;;;9.93;1.33;;;;;;;10.38;84.71;99390.53;2009605;80;20189;-74
2022/01/03 10:51:37;;;;;;;10.79;2.01;;;;;;;10.44;85.00;99388.78;2008699;80;20753;-74
2022/01/03 10:54:42;;;;;;;7.99;1.02;;;;;;;10.49;85.12;99376.66;2008293;80;20173;-74
2022/01/03 10:58:01;;;;;;;10.74;1.56;;;;;;;10.46;85.27;99376.66;2008355;80;20252;-74
2022/01/03 11:01:03;;;;;;;8.36;0.99;;;;;;;10.52;85.49;99373.16;2004781;80;27378;-74
2022/01/03 11:04:06;;;;;;;10.29;1.36;;;;;;;10.61;85.33;99373.13;2002602;81;21064;-73
2022/01/03 11:10:47;;;;;;;9.76;1.73;;;;;;;10.70;84.84;99361.81;2002923;81;20287;-74
2022/01/03 11:13:51;;;;;;;11.55;1.69;;;;;;;10.72;84.36;99357.47;2003142;80;20307;-74
2022/01/03 11:16:54;;;;;;;13.06;1.71;;;;;;;10.74;84.52;99342.75;2004008;78;22025;-74
2022/01/03 11:19:59;;;;;;;13.06;1.92;;;;;;;10.76;84.47;99318.50;2008416;80;20747;-74
2022/01/03 11:23:02;;;;;;;13.61;2.46;;;;;;;10.82;84.45;99328.00;2003778;80;20197;-74
2022/01/03 11:26:07;;;;;;;8.26;1.33;;;;;;;10.76;84.04;99323.69;2008006;80;20209;-75
2022/01/03 11:29:10;;;;;;;11.51;1.84;;;;;;;10.76;84.02;99322.81;2006604;80;20218;-75
2022/01/03 11:32:13;;;;;;;7.51;1.23;;;;;;;10.67;84.27;99322.91;2006476;77;23389;-77
2022/01/03 11:35:16;;;;;;;11.88;1.66;;;;;;;10.67;84.78;99315.97;2008895;80;20685;-77
2022/01/03 11:38:21;;;;;;;8.74;1.27;;;;;;;10.66;84.68;99313.38;2007670;80;20173;-77
2022/01/03 11:41:25;;;;;;;10.96;1.95;;;;;;;10.60;84.14;99296.13;2007382;80;20217;-75
2022/01/03 11:44:28;;;;;;;10.76;1.63;;;;;;;10.58;84.14;99284.84;2006433;80;20238;-74
2022/01/03 11:47:31;;;;;;;11.39;1.75;;;;;;;10.59;83.98;99286.56;2005005;77;21259;-74
2022/01/03 11:50:38;;;;;;;7.82;1.52;;;;;;;10.57;83.29;99280.53;2007372;80;20270;-74
2022/01/03 11:53:46;;;;;;;11.68;1.66;;;;;;;10.58;82.81;99274.47;2006740;80;20262;-75
2022/01/03 11:57:06;;;;;;;4.07;0.79;;;;;;;10.58;81.75;99269.28;2010655;80;20201;-75
2022/01/03 12:03:40;;;;;;;7.86;0.96;;;;;;;10.64;81.47;99245.03;2009079;80;20167;-75
2022/01/03 12:06:45;;;;;;;6.89;1.13;;;;;;;10.66;80.73;99240.69;2006740;80;20197;-75
2022/01/03 12:09:50;;;;;;;11.66;1.15;;;;;;;10.67;80.81;99245.84;2008094;80;20864;-75
2022/01/03 12:12:58;;;;;;;7.35;1.11;;;;;;;10.67;80.26;99245.84;2004362;80;20211;-75
2022/01/03 12:16:05;;;;;;;6.89;1.04;;;;;;;10.70;79.93;99232.84;2002672;78;22435;-75
2022/01/03 12:19:10;;;;;;;5.69;0.80;;;;;;;10.72;79.85;99240.63;2008175;80;20686;-75
2022/01/03 12:22:17;;;;;;;9.34;1.55;;;;;;;10.76;79.42;99237.97;2007169;80;20234;-75
2022/01/03 12:25:35;;;;;;;8.82;1.10;;;;;;;10.79;79.01;99243.19;2006909;80;20320;-75
2022/01/03 12:29:02;;;;;;;4.41;1.00;;;;;;;10.80;78.49;99237.13;2005770;80;20282;-75
2022/01/03 12:32:05;;;;;;;6.65;0.90;;;;;;;10.84;78.48;99232.75;2005267;78;21183;-74
2022/01/03 12:35:11;;;;;;;8.29;1.34;;;;;;;10.87;78.61;99222.31;2007160;80;20205;-75
2022/01/03 12:38:20;;;;;;;3.29;0.82;;;;;;;10.92;78.65;99225.75;2007375;80;20235;-75
2022/01/03 12:41:41;;;;;;;5.13;0.95;;;;;;;10.92;77.52;99220.53;2007473;80;21078;-75
2022/01/03 12:44:45;;;;;;;8.74;1.00;;;;;;;10.96;77.56;99211.88;2008088;80;20661;-75
2022/01/03 12:47:47;;;;;;;8.41;1.29;;;;;;;10.99;77.49;99206.66;2005883;78;27533;-75
2022/01/03 12:50:53;;;;;;;8.11;1.02;;;;;;;11.04;77.60;99201.41;2007512;80;20181;-75
2022/01/03 12:53:56;;;;;;;6.50;1.00;;;;;;;11.07;77.83;99193.56;2007312;80;20213;-75
2022/01/03 12:57:13;;;;;;;9.18;2.59;;;;;;;11.06;77.45;99191.84;2007721;80;20169;-75
2022/01/03 13:00:41;;;;;;;11.14;1.54;;;;;;;11.11;77.59;99190.06;2005154;80;20224;-75
2022/01/03 13:03:56;;;;;;;5.44;0.90;;;;;;;11.05;76.40;99171.94;2003046;81;20213;-75
2022/01/03 13:07:03;;;;;;;5.41;0.75;;;;;;;11.04;76.83;99168.47;2002525;81;20190;-75
2022/01/03 13:10:06;;;;;;;9.24;1.55;;;;;;;11.03;76.91;99158.97;2002719;81;20197;-75
2022/01/03 13:13:24;;;;;;;8.19;1.19;;;;;;;11.07;77.01;99154.59;2002171;81;20234;-75
2022/01/03 13:16:28;;;;;;;8.35;1.11;;;;;;;11.05;76.73;99136.44;2001274;78;21418;-74
2022/01/03 13:19:36;;;;;;;3.79;0.66;;;;;;;11.00;76.81;99140.81;2002217;81;20245;-74
2022/01/03 13:22:39;;;;;;;8.52;1.47;;;;;;;11.02;76.74;99138.19;2002664;81;20302;-75
2022/01/03 13:25:41;;;;;;;8.52;1.16;;;;;;;11.03;77.02;99120.00;2003067;81;20223;-75
2022/01/03 13:28:45;;;;;;;10.14;1.26;;;;;;;11.03;76.97;99114.81;2002816;81;20194;-75
2022/01/03 13:31:50;;;;;;;6.54;1.46;;;;;;;11.06;77.40;99119.09;2001183;78;23966;-75
2022/01/03 13:34:54;;;;;;;10.93;1.26;;;;;;;11.08;77.31;99114.75;2000871;81;20201;-75
2022/01/03 13:37:57;;;;;;;10.15;1.14;;;;;;;11.07;76.81;99120.81;2001468;80;20194;-75
2022/01/03 13:41:15;;;;;;;9.45;1.26;;;;;;;11.07;76.64;99115.63;2001222;81;20235;-75
2022/01/03 13:44:26;;;;;;;8.40;1.19;;;;;;;11.06;76.84;99125.16;2001353;81;21396;-75
2022/01/03 13:50:55;;;;;;;7.53;1.13;;;;;;;11.05;76.99;99113.03;2000450;81;20351;-75
2022/01/03 13:54:00;;;;;;;8.07;1.00;;;;;;;11.06;76.98;99111.31;2001345;81;20242;-76
2022/01/03 13:57:05;;;;;;;6.45;1.38;;;;;;;11.05;77.44;99109.59;2003188;81;21147;-77
2022/01/03 14:00:09;;;;;;;6.06;1.10;;;;;;;11.03;77.95;99104.41;2002341;81;20243;-75
2022/01/03 14:03:15;;;;;;;7.94;1.04;;;;;;;10.95;78.10;99088.06;2001511;78;24168;-76
2022/01/03 14:06:20;;;;;;;9.80;1.11;;;;;;;10.91;78.29;99086.34;2001318;81;20345;-74
2022/01/03 14:09:22;;;;;;;9.51;1.70;;;;;;;10.88;77.98;99095.03;2000628;80;20582;-74
2022/01/03 14:12:53;;;;;;;6.59;1.00;;;;;;;10.87;78.51;99098.50;2000753;81;20923;-74
2022/01/03 14:16:06;;;;;;;12.44;1.74;;;;;;;10.87;78.05;99082.06;2001691;78;20925;-75
2022/01/03 14:19:10;;;;;;;7.06;0.96;;;;;;;10.86;77.41;99078.63;2008498;80;20218;-76
2022/01/03 14:22:15;;;;;;;5.86;1.04;;;;;;;10.87;77.78;99082.06;2008112;80;20242;-74
2022/01/03 14:25:23;;;;;;;7.88;1.02;;;;;;;10.84;77.82;99085.56;2005845;80;20303;-76
2022/01/03 14:28:26;;;;;;;6.43;0.82;;;;;;;10.83;78.11;99086.44;2004735;80;20223;-74
2022/01/03 14:31:39;;;;;;;8.05;1.34;;;;;;;10.82;78.64;99073.47;2002238;78;29206;-74
2022/01/03 14:34:51;;;;;;;6.88;1.15;;;;;;;10.78;78.53;99072.66;2005394;80;20642;-74
2022/01/03 14:38:06;;;;;;;7.72;1.30;;;;;;;10.77;79.18;99070.94;2004613;80;20920;-74
2022/01/03 14:41:20;;;;;;;10.38;1.36;;;;;;;10.71;79.09;99065.78;2005282;80;20776;-73
2022/01/03 14:44:25;;;;;;;10.64;1.44;;;;;;;10.73;79.07;99069.22;2004951;80;20199;-72
2022/01/03 14:47:28;;;;;;;7.64;0.99;;;;;;;10.68;79.83;99064.97;2002258;77;24375;-71
2022/01/03 14:50:35;;;;;;;5.53;1.10;;;;;;;10.62;81.39;99072.81;2005201;80;20192;-71
2022/01/03 14:53:38;;;;;;;7.96;0.89;;;;;;;10.54;82.48;99078.06;2003218;80;20686;-72
2022/01/03 14:56:43;;;;;;;6.19;1.09;;;;;;;10.47;83.51;99066.03;2004184;80;20626;-72
2022/01/03 14:59:46;;;;;;;7.39;0.91;;;;;;;10.37;84.86;99064.38;2004584;80;20749;-73